createdAt,value
2022-10-04T00:01:45.145Z,11.10
2022-10-04T00:04:25.826Z,11.10
2022-10-04T00:07:24.106Z,11.10
2022-10-04T00:10:00.985Z,11.10
2022-10-04T00:12:40.339Z,11.00
2022-10-04T00:15:37.268Z,11.10
2022-10-04T00:18:25.653Z,11.10
2022-10-04T00:20:53.643Z,11.10
2022-10-04T00:23:23.215Z,11.10
2022-10-04T00:26:16.773Z,11.00
2022-10-04T00:28:47.914Z,11.00
2022-10-04T00:31:19.045Z,11.00
2022-10-04T00:34:08.487Z,11.10
2022-10-04T00:36:40.446Z,11.10
2022-10-04T00:39:07.201Z,11.00
2022-10-04T00:41:51.826Z,11.10
2022-10-04T00:44:29.524Z,11.10
2022-10-04T00:46:58.903Z,11.10
2022-10-04T00:49:33.416Z,11.10
2022-10-04T00:52:06.697Z,11.10
2022-10-04T00:54:41.407Z,11.00
2022-10-04T00:57:15.745Z,11.10
2022-10-04T00:59:50.382Z,11.10
2022-10-04T01:02:21.682Z,11.10
2022-10-04T01:04:54.888Z,11.10
2022-10-04T01:07:38.218Z,11.10
2022-10-04T01:10:11.085Z,11.00
2022-10-04T01:12:52.680Z,11.00
2022-10-04T01:15:25.522Z,11.10
2022-10-04T01:18:11.315Z,11.10
2022-10-04T01:20:53.899Z,11.10
2022-10-04T01:23:35.920Z,11.10
2022-10-04T01:26:05.442Z,11.10
2022-10-04T01:28:34.768Z,11.10
2022-10-04T01:31:01.796Z,11.10
2022-10-04T01:33:29.360Z,11.10
2022-10-04T01:35:56.692Z,11.10
2022-10-04T01:38:23.635Z,11.10
2022-10-04T01:40:57.768Z,11.10
2022-10-04T01:43:31.886Z,11.10
2022-10-04T01:46:13.972Z,11.00
2022-10-04T01:48:44.450Z,11.00
2022-10-04T01:51:29.233Z,11.10
2022-10-04T01:54:11.145Z,11.10
2022-10-04T01:56:49.817Z,11.10
2022-10-04T01:59:28.961Z,11.10
2022-10-04T02:02:01.913Z,11.10
2022-10-04T02:04:32.922Z,11.00
2022-10-04T02:07:01.831Z,11.00
2022-10-04T02:09:39.163Z,10.90
2022-10-04T02:12:07.020Z,10.90
2022-10-04T02:14:35.370Z,10.90
2022-10-04T02:17:08.041Z,10.90
2022-10-04T02:19:42.579Z,10.90
2022-10-04T02:22:11.196Z,10.90
2022-10-04T02:24:43.474Z,10.90
2022-10-04T02:27:10.291Z,10.90
2022-10-04T02:29:37.234Z,10.90
2022-10-04T02:32:26.185Z,10.90
2022-10-04T02:34:54.975Z,10.90
2022-10-04T02:37:27.010Z,10.90
2022-10-04T02:40:00.581Z,10.90
2022-10-04T02:43:09.530Z,10.90
2022-10-04T02:45:46.371Z,11.00
2022-10-04T02:48:37.447Z,10.90
2022-10-04T02:51:15.217Z,10.90
2022-10-04T02:54:05.412Z,10.90
2022-10-04T02:56:33.502Z,10.80
2022-10-04T02:59:05.723Z,10.80
2022-10-04T03:01:50.935Z,10.80
2022-10-04T03:04:21.089Z,10.70
2022-10-04T03:06:48.820Z,10.70
2022-10-04T03:09:16.551Z,10.60
2022-10-04T03:11:44.510Z,10.60
2022-10-04T03:14:18.967Z,10.60
2022-10-04T03:16:47.548Z,10.60
2022-10-04T03:19:17.156Z,10.50
2022-10-04T03:21:47.717Z,10.50
2022-10-04T03:24:24.909Z,10.50
2022-10-04T03:26:57.439Z,10.50
2022-10-04T03:29:27.525Z,10.50
2022-10-04T03:31:59.221Z,10.40
2022-10-04T03:34:32.539Z,10.50
2022-10-04T03:37:01.099Z,10.60
2022-10-04T03:39:55.153Z,10.70
2022-10-04T03:42:40.890Z,10.70
2022-10-04T03:45:14.044Z,10.70
2022-10-04T03:47:44.909Z,10.70
2022-10-04T03:50:33.547Z,10.70
2022-10-04T03:53:07.864Z,10.80
2022-10-04T03:55:38.748Z,10.90
2022-10-04T03:58:06.673Z,10.90
2022-10-04T04:00:39.624Z,11.00
2022-10-04T04:03:09.502Z,11.00
2022-10-04T04:05:44.789Z,11.10
2022-10-04T04:08:17.594Z,11.10
2022-10-04T04:10:51.113Z,11.10
2022-10-04T04:13:37.677Z,11.10
2022-10-04T04:16:05.729Z,11.20
2022-10-04T04:18:40.499Z,11.20
2022-10-04T04:21:08.139Z,11.20
2022-10-04T04:23:48.608Z,11.10
2022-10-04T04:26:23.529Z,11.20
2022-10-04T04:29:11.098Z,11.20
2022-10-04T04:31:46.395Z,11.20
2022-10-04T04:34:34.739Z,11.20
2022-10-04T04:37:04.504Z,11.20
2022-10-04T04:39:37.534Z,11.10
2022-10-04T04:42:13.854Z,11.10
2022-10-04T04:44:49.046Z,11.10
2022-10-04T04:47:27.617Z,11.10
2022-10-04T04:49:56.738Z,11.10
2022-10-04T04:52:27.589Z,11.00
2022-10-04T04:54:56.136Z,11.00
2022-10-04T04:57:23.169Z,11.00
2022-10-04T04:59:58.669Z,10.90
2022-10-04T05:02:38.123Z,10.90
2022-10-04T05:05:26.040Z,10.90
2022-10-04T05:08:13.683Z,10.90
2022-10-04T05:10:49.883Z,10.90
2022-10-04T05:13:18.040Z,10.90
2022-10-04T05:15:45.212Z,10.90
2022-10-04T05:18:32.147Z,10.90
2022-10-04T05:21:15.150Z,10.90
2022-10-04T05:23:42.600Z,11.10
2022-10-04T05:26:14.484Z,11.10
2022-10-04T05:28:41.824Z,11.20
2022-10-04T05:31:20.423Z,11.10
2022-10-04T05:33:50.604Z,11.00
2022-10-04T05:36:38.558Z,10.90
2022-10-04T05:39:28.679Z,10.90
2022-10-04T05:42:21.215Z,10.90
2022-10-04T05:44:52.485Z,11.00
2022-10-04T05:47:28.023Z,11.00
2022-10-04T05:49:57.897Z,11.00
2022-10-04T05:52:38.780Z,11.00
2022-10-04T05:55:42.813Z,11.00
2022-10-04T05:58:42.176Z,11.10
2022-10-04T06:01:36.516Z,11.10
2022-10-04T06:04:27.389Z,11.10
2022-10-04T06:06:58.175Z,11.30
2022-10-04T06:09:51.343Z,11.30
2022-10-04T06:12:44.431Z,11.30
2022-10-04T06:15:40.898Z,11.40
2022-10-04T06:18:26.003Z,11.50
2022-10-04T06:21:17.617Z,11.60
2022-10-04T06:23:50.459Z,11.60
2022-10-04T06:26:31.099Z,11.60
2022-10-04T06:29:10.404Z,11.70
2022-10-04T06:32:26.545Z,11.70
2022-10-04T06:35:10.724Z,11.70
2022-10-04T06:38:01.836Z,11.80
2022-10-04T06:40:58.621Z,11.90
2022-10-04T06:43:45.545Z,12.10
2022-10-04T06:46:26.823Z,12.20
2022-10-04T06:49:29.969Z,12.40
2022-10-04T06:52:02.547Z,12.40
2022-10-04T06:54:59.226Z,12.40
2022-10-04T06:57:48.049Z,12.50
2022-10-04T07:00:31.442Z,12.50
2022-10-04T07:03:26.537Z,12.70
2022-10-04T07:06:01.505Z,12.70
2022-10-04T07:08:34.235Z,12.70
2022-10-04T07:11:22.187Z,12.90
2022-10-04T07:14:05.942Z,12.90
2022-10-04T07:16:43.142Z,12.90
2022-10-04T07:19:16.187Z,13.10
2022-10-04T07:22:04.685Z,13.00
2022-10-04T07:24:53.262Z,13.30
2022-10-04T07:28:20.539Z,13.40
2022-10-04T07:31:03.720Z,13.40
2022-10-04T07:33:35.585Z,13.20
2022-10-04T07:36:12.178Z,13.20
2022-10-04T07:38:49.916Z,13.20
2022-10-04T07:41:28.672Z,13.00
2022-10-04T07:44:29.602Z,12.90
2022-10-04T07:47:18.372Z,12.90
2022-10-04T07:49:45.218Z,13.00
2022-10-04T07:52:36.744Z,13.20
2022-10-04T07:55:45.101Z,13.20
2022-10-04T07:58:45.498Z,13.40
2022-10-04T08:01:25.010Z,13.30
2022-10-04T08:04:29.621Z,13.30
2022-10-04T08:07:02.718Z,13.30
2022-10-04T08:09:38.074Z,13.20
2022-10-04T08:12:21.098Z,13.20
2022-10-04T08:15:15.948Z,13.20
2022-10-04T08:18:08.922Z,13.20
2022-10-04T08:20:50.507Z,13.30
2022-10-04T08:23:58.546Z,13.50
2022-10-04T08:27:15.450Z,13.60
2022-10-04T08:29:59.058Z,13.70
2022-10-04T08:32:44.721Z,13.90
2022-10-04T08:35:20.151Z,14.10
2022-10-04T08:38:28.392Z,14.00
2022-10-04T08:41:21.044Z,14.20
2022-10-04T08:44:17.899Z,14.30
2022-10-04T08:46:54.173Z,14.40
2022-10-04T08:49:23.948Z,14.50
2022-10-04T08:52:24.442Z,14.50
2022-10-04T08:55:28.396Z,14.40
2022-10-04T08:57:55.314Z,14.50
2022-10-04T09:01:06.705Z,14.60
2022-10-04T09:03:42.239Z,14.70
2022-10-04T09:06:36.430Z,14.60
2022-10-04T09:09:28.973Z,14.70
2022-10-04T09:12:22.115Z,14.80
2022-10-04T09:15:20.597Z,14.90
2022-10-04T09:18:12.335Z,15.00
2022-10-04T09:21:14.108Z,14.90
2022-10-04T09:23:55.187Z,14.90
2022-10-04T09:26:50.328Z,15.00
2022-10-04T09:29:51.451Z,15.10
2022-10-04T09:32:33.290Z,15.20
2022-10-04T09:35:21.509Z,15.20
2022-10-04T09:38:10.575Z,15.30
2022-10-04T09:40:52.668Z,15.20
2022-10-04T09:43:43.764Z,15.30
2022-10-04T09:46:56.216Z,15.40
2022-10-04T09:49:43.802Z,15.50
2022-10-04T09:52:40.374Z,15.50
2022-10-04T09:55:25.243Z,15.50
2022-10-04T09:58:16.370Z,15.70
2022-10-04T10:01:11.632Z,15.70
2022-10-04T10:03:57.172Z,15.80
2022-10-04T10:06:46.615Z,15.90
2022-10-04T10:09:44.016Z,15.90
2022-10-04T10:12:32.067Z,16.00
2022-10-04T10:15:05.111Z,16.00
2022-10-04T10:17:40.246Z,16.00
2022-10-04T10:20:45.794Z,16.10
2022-10-04T10:23:37.233Z,16.10
2022-10-04T10:26:35.457Z,16.30
2022-10-04T10:29:41.836Z,16.30
2022-10-04T10:32:33.371Z,16.20
2022-10-04T10:35:17.890Z,16.10
2022-10-04T10:37:53.659Z,16.10
2022-10-04T10:40:41.038Z,16.20
2022-10-04T10:43:26.707Z,16.30
2022-10-04T10:46:06.819Z,16.40
2022-10-04T10:49:06.982Z,16.40
2022-10-04T10:52:13.819Z,16.50
2022-10-04T10:55:20.315Z,16.50
2022-10-04T10:58:08.357Z,16.50
2022-10-04T11:01:10.640Z,16.60
2022-10-04T11:03:56.120Z,16.70
2022-10-04T11:06:39.441Z,16.60
2022-10-04T11:09:27.222Z,16.70
2022-10-04T11:12:08.711Z,16.70
2022-10-04T11:15:03.733Z,16.80
2022-10-04T11:17:46.540Z,16.90
2022-10-04T11:20:32.917Z,17.00
2022-10-04T11:23:32.940Z,17.20
2022-10-04T11:26:19.911Z,17.20
2022-10-04T11:29:10.244Z,17.30
2022-10-04T11:31:55.071Z,17.30
2022-10-04T11:34:58.058Z,17.10
2022-10-04T11:37:43.672Z,17.10
2022-10-04T11:40:28.737Z,17.20
2022-10-04T11:43:07.151Z,17.20
2022-10-04T11:45:47.624Z,17.10
2022-10-04T11:48:14.351Z,17.10
2022-10-04T11:51:11.011Z,17.10
2022-10-04T11:54:07.947Z,17.30
2022-10-04T11:56:43.402Z,17.30
2022-10-04T11:59:29.237Z,17.40
2022-10-04T12:02:37.556Z,17.60
2022-10-04T12:05:33.116Z,17.60
2022-10-04T12:08:15.149Z,17.50
2022-10-04T12:10:44.980Z,17.60
2022-10-04T12:13:14.512Z,17.50
2022-10-04T12:16:18.704Z,17.50
2022-10-04T12:18:48.622Z,17.50
2022-10-04T12:21:36.065Z,17.70
2022-10-04T12:24:14.950Z,17.70
2022-10-04T12:27:09.209Z,17.70
2022-10-04T12:29:58.173Z,17.80
2022-10-04T12:32:57.767Z,17.90
2022-10-04T12:35:44.273Z,17.80
2022-10-04T12:38:36.280Z,18.00
2022-10-04T12:41:24.183Z,17.80
2022-10-04T12:44:15.886Z,17.90
2022-10-04T12:46:54.609Z,17.90
2022-10-04T12:50:12.690Z,18.00
2022-10-04T12:52:51.957Z,17.90
2022-10-04T12:55:59.074Z,18.00
2022-10-04T12:58:45.831Z,17.90
2022-10-04T13:01:39.506Z,18.10
2022-10-04T13:04:29.461Z,18.20
2022-10-04T13:07:15.025Z,18.00
2022-10-04T13:10:11.993Z,18.10
2022-10-04T13:12:54.995Z,18.00
2022-10-04T13:17:25.148Z,18.00
2022-10-04T13:18:30.370Z,18.10
2022-10-04T13:21:09.096Z,18.10
2022-10-04T13:24:02.231Z,18.00
2022-10-04T13:26:42.529Z,17.90
2022-10-04T13:29:32.669Z,17.90
2022-10-04T13:32:03.172Z,18.00
2022-10-04T13:34:57.155Z,17.90
2022-10-04T13:38:05.309Z,17.90
2022-10-04T13:40:56.002Z,18.20
2022-10-04T13:43:27.716Z,18.20
2022-10-04T13:46:23.153Z,18.20
2022-10-04T13:49:12.125Z,18.20
2022-10-04T13:51:48.409Z,17.90
2022-10-04T13:54:55.219Z,18.00
2022-10-04T13:57:37.190Z,18.00
2022-10-04T14:00:27.997Z,18.00
2022-10-04T14:02:57.870Z,18.20
2022-10-04T14:05:34.051Z,18.10
2022-10-04T14:08:15.893Z,18.20
2022-10-04T14:11:10.437Z,18.20
2022-10-04T14:14:10.298Z,18.10
2022-10-04T14:17:14.774Z,18.10
2022-10-04T14:20:02.742Z,18.10
2022-10-04T14:22:44.737Z,18.00
2022-10-04T14:25:27.934Z,18.10
2022-10-04T14:28:24.137Z,18.10
2022-10-04T14:31:12.436Z,18.10
2022-10-04T14:34:16.690Z,17.90
2022-10-04T14:37:02.535Z,17.90
2022-10-04T14:39:54.133Z,18.00
2022-10-04T14:42:39.376Z,18.10
2022-10-04T14:45:17.141Z,18.00
2022-10-04T14:48:12.392Z,17.90
2022-10-04T14:51:06.765Z,17.90
2022-10-04T14:53:56.188Z,17.90
2022-10-04T14:56:35.096Z,18.00
2022-10-04T14:59:22.335Z,17.90
2022-10-04T15:02:01.366Z,17.80
2022-10-04T15:04:31.276Z,17.90
2022-10-04T15:07:15.846Z,17.90
2022-10-04T15:10:03.655Z,17.90
2022-10-04T15:15:40.937Z,17.90
2022-10-04T15:18:48.068Z,17.80
2022-10-04T15:21:23.736Z,18.00
2022-10-04T15:24:00.614Z,17.80
2022-10-04T15:26:30.079Z,17.70
2022-10-04T15:29:27.692Z,17.70
2022-10-04T15:32:24.273Z,17.60
2022-10-04T15:35:15.933Z,17.50
2022-10-04T15:38:13.449Z,17.50
2022-10-04T15:41:03.572Z,17.40
2022-10-04T15:43:44.011Z,17.20
2022-10-04T15:46:40.291Z,17.20
2022-10-04T15:49:25.614Z,17.20
2022-10-04T15:52:40.251Z,17.20
2022-10-04T15:55:18.539Z,17.00
2022-10-04T15:57:45.257Z,17.00
2022-10-04T16:00:23.971Z,17.00
2022-10-04T16:03:13.315Z,16.90
2022-10-04T16:06:02.176Z,16.80
2022-10-04T16:08:47.166Z,16.60
2022-10-04T16:11:23.013Z,16.50
2022-10-04T16:13:55.179Z,16.40
2022-10-04T16:16:41.501Z,16.30
2022-10-04T16:19:39.213Z,16.10
2022-10-04T16:22:16.033Z,16.00
2022-10-04T16:24:45.843Z,15.80
2022-10-04T16:27:40.628Z,15.70
2022-10-04T16:30:27.439Z,15.60
2022-10-04T16:33:25.614Z,15.50
2022-10-04T16:36:16.488Z,15.40
2022-10-04T16:39:15.531Z,15.20
2022-10-04T16:42:05.399Z,15.00
2022-10-04T16:45:07.344Z,14.90
2022-10-04T16:47:59.675Z,14.70
2022-10-04T16:50:48.318Z,14.50
2022-10-04T16:53:38.667Z,14.50
2022-10-04T16:56:53.887Z,14.30
2022-10-04T16:59:38.902Z,14.20
2022-10-04T17:02:24.893Z,14.10
2022-10-04T17:05:22.513Z,14.00
2022-10-04T17:07:55.313Z,14.00
2022-10-04T17:10:44.509Z,13.90
2022-10-04T17:13:34.669Z,13.90
2022-10-04T17:16:19.476Z,13.80
2022-10-04T17:19:15.417Z,13.80
2022-10-04T17:21:57.053Z,13.70
2022-10-04T17:24:33.269Z,13.70
2022-10-04T17:27:57.547Z,13.60
2022-10-04T17:30:27.373Z,13.50
2022-10-04T17:33:15.784Z,13.50
2022-10-04T17:36:07.190Z,13.40
2022-10-04T17:38:49.401Z,13.30
2022-10-04T17:41:27.867Z,13.20
2022-10-04T17:44:06.854Z,13.20
2022-10-04T17:46:49.035Z,13.10
2022-10-04T17:49:52.987Z,13.10
2022-10-04T17:52:29.894Z,13.10
2022-10-04T17:55:18.727Z,13.10
2022-10-04T17:58:08.868Z,13.10
2022-10-04T18:01:08.015Z,13.20
2022-10-04T18:03:52.226Z,13.20
2022-10-04T18:06:37.233Z,13.00
2022-10-04T18:09:30.369Z,13.00
2022-10-04T18:12:02.250Z,13.00
2022-10-04T18:14:56.811Z,13.00
2022-10-04T18:17:31.422Z,13.10
2022-10-04T18:20:16.752Z,13.30
2022-10-04T18:22:48.885Z,13.30
2022-10-04T18:25:21.012Z,13.30
2022-10-04T18:28:08.099Z,13.10
2022-10-04T18:30:54.105Z,13.20
2022-10-04T18:33:48.167Z,13.10
2022-10-04T18:36:31.134Z,13.00
2022-10-04T18:39:11.706Z,13.00
2022-10-04T18:42:07.159Z,13.10
2022-10-04T18:44:49.359Z,13.10
2022-10-04T18:47:30.403Z,13.00
2022-10-04T18:50:03.064Z,13.00
2022-10-04T18:52:51.440Z,12.90
2022-10-04T18:55:51.786Z,13.00
2022-10-04T18:59:07.915Z,12.80
2022-10-04T19:02:06.454Z,12.80
2022-10-04T19:05:15.805Z,12.90
2022-10-04T19:07:45.531Z,12.70
2022-10-04T19:10:26.274Z,12.60
2022-10-04T19:13:16.025Z,12.80
2022-10-04T19:15:52.718Z,12.80
2022-10-04T19:18:34.767Z,12.90
2022-10-04T19:21:14.687Z,12.80
2022-10-04T19:23:50.613Z,12.70
2022-10-04T19:26:36.096Z,12.70
2022-10-04T19:29:21.879Z,12.60
2022-10-04T19:32:00.349Z,12.60
2022-10-04T19:34:53.881Z,12.60
2022-10-04T19:37:23.782Z,12.80
2022-10-04T19:40:00.933Z,12.60
2022-10-04T19:43:03.667Z,12.60
2022-10-04T19:45:51.720Z,12.60
2022-10-04T19:48:25.695Z,12.50
2022-10-04T19:51:08.754Z,12.40
2022-10-04T19:53:45.256Z,12.40
2022-10-04T19:56:20.576Z,12.30
2022-10-04T19:59:01.584Z,12.30
2022-10-04T20:01:29.836Z,12.20
2022-10-04T20:04:16.456Z,12.20
2022-10-04T20:06:55.402Z,12.20
2022-10-04T20:09:36.423Z,12.20
2022-10-04T20:12:05.518Z,12.30
2022-10-04T20:14:32.530Z,12.20
2022-10-04T20:17:02.095Z,12.20
2022-10-04T20:19:29.117Z,12.20
2022-10-04T20:22:18.503Z,12.10
2022-10-04T20:24:45.514Z,12.10
2022-10-04T20:27:36.591Z,12.20
2022-10-04T20:30:16.683Z,12.40
2022-10-04T20:32:43.868Z,12.50
2022-10-04T20:35:14.886Z,12.40
2022-10-04T20:37:44.589Z,12.40
2022-10-04T20:40:21.338Z,12.40
2022-10-04T20:43:13.139Z,12.50
2022-10-04T20:46:01.638Z,12.40
2022-10-04T20:48:31.973Z,12.30
2022-10-04T20:51:09.655Z,12.30
2022-10-04T20:53:42.730Z,12.30
2022-10-04T20:56:20.915Z,12.30
2022-10-04T20:58:52.958Z,12.20
2022-10-04T21:01:37.907Z,12.20
2022-10-04T21:04:50.217Z,12.30
2022-10-04T21:07:19.690Z,12.30
2022-10-04T21:09:46.665Z,12.30
2022-10-04T21:12:28.656Z,12.30
2022-10-04T21:15:07.441Z,12.70
2022-10-04T21:17:35.890Z,12.70
2022-10-04T21:20:04.591Z,12.90
2022-10-04T21:22:33.808Z,12.80
2022-10-04T21:25:23.531Z,12.70
2022-10-04T21:27:50.349Z,12.80
2022-10-04T21:30:19.663Z,12.70
2022-10-04T21:32:46.509Z,12.80
2022-10-04T21:35:13.582Z,12.90
2022-10-04T21:37:40.841Z,12.80
2022-10-04T21:40:08.701Z,12.90
2022-10-04T21:42:35.515Z,13.10
2022-10-04T21:45:02.382Z,13.00
2022-10-04T21:47:29.152Z,13.00
2022-10-04T21:49:55.922Z,12.90
2022-10-04T21:52:22.801Z,13.00
2022-10-04T21:54:49.592Z,13.20
2022-10-04T21:57:16.430Z,13.20
2022-10-04T21:59:43.381Z,13.20
2022-10-04T22:02:10.355Z,13.00
2022-10-04T22:04:38.189Z,13.20
2022-10-04T22:07:05.406Z,13.00
2022-10-04T22:09:33.886Z,12.90
2022-10-04T22:12:00.646Z,12.70
2022-10-04T22:14:27.617Z,12.70
2022-10-04T22:16:54.458Z,12.70
2022-10-04T22:19:21.441Z,12.60
2022-10-04T22:21:48.365Z,12.50
2022-10-04T22:24:22.344Z,12.60
2022-10-04T22:26:49.634Z,12.50
2022-10-04T22:29:18.232Z,12.30
2022-10-04T22:31:49.731Z,12.30
2022-10-04T22:34:24.546Z,12.20
2022-10-04T22:36:54.835Z,12.20
2022-10-04T22:39:22.067Z,12.10
2022-10-04T22:41:57.750Z,12.00
2022-10-04T22:44:45.524Z,12.00
2022-10-04T22:47:16.065Z,11.90
2022-10-04T22:49:45.708Z,11.90
2022-10-04T22:52:22.253Z,11.70
2022-10-04T22:54:51.271Z,11.70
2022-10-04T22:57:19.619Z,11.70
2022-10-04T22:59:51.308Z,11.60
2022-10-04T23:02:28.859Z,11.70
2022-10-04T23:05:01.153Z,11.60
2022-10-04T23:07:28.282Z,11.60
2022-10-04T23:09:55.024Z,11.60
2022-10-04T23:12:21.752Z,11.70
2022-10-04T23:14:48.632Z,11.80
2022-10-04T23:17:27.514Z,11.70
2022-10-04T23:20:01.850Z,11.80
2022-10-04T23:22:30.340Z,11.70
2022-10-04T23:24:57.477Z,11.70
2022-10-04T23:27:24.235Z,11.70
2022-10-04T23:29:58.581Z,11.80
2022-10-04T23:32:26.977Z,11.80
2022-10-04T23:34:56.920Z,11.70
2022-10-04T23:37:27.423Z,11.80
2022-10-04T23:39:54.379Z,11.70
2022-10-04T23:42:33.425Z,11.70
2022-10-04T23:45:01.735Z,11.70
2022-10-04T23:47:34.410Z,11.80
2022-10-04T23:50:02.001Z,11.80
2022-10-04T23:52:35.785Z,11.80
2022-10-04T23:55:10.160Z,11.80
2022-10-04T23:57:36.884Z,11.80
